Etusivu
METAR-TAF:

METAR-TAF

Lentoasemat :

Ängelholm-Helsingborgin lentoasema

Helsingborg, Ruotsi

Leveyspiiri: 56-17-46N, Pituuspiiri: 012-50-50E, korkeus merenpinnasta: 21 m

Tämänhetkinen sää

Tämä raportti tehtiin 12 minuuttia sitten, kello 09.50 UTC
Tuuli 8 kn etelästä/lounaasta
Lämpötila 6°C
Kosteus 87%
Ilmanpaine 1015 hPa
Näkyvyys 10 km tai enemmän

METAR: ESTA 170950Z AUTO 21008KT 9999 FEW013/// 06/04 Q1015

Aika: 11:02 (10:02 UTC)

Sääennuste

Tämä raportti tehtiin 22 tuntia ja 50 minuuttia sitten, kello 11.12 UTC
Ennuste voimassa 16. päivästä klo 12 UTC - 16. päivään klo 16 UTC
Tuuli 14 kn idästä/kaakosta
Näkyvyys: 3000 m
Hajonneita pilviä 800 ft:n korkeudessa
sadetta, tihkusadetta, utua
Ajoittain
16. päivästä klo 12 UTC - 16. päivään klo 16 UTC
Näkyvyys: 8000 m
Hajonneita pilviä 1500 ft:n korkeudessa

TAF: ESTA 161112Z 1612/1616 12014KT 3000 RADZ BR BKN008 TEMPO 1612/1616 8000 NSW BKN015

Säähavainnot ja -ennusteet yli 4000 lentoasemalta (METAR- ja TAF-raportit).

Käytössä olevat sääasemat on merkitty karttaan keltaisilla ja punaisilla pisteillä.

Aseta hiiri pisteen päälle nähdäksesi sääaseman nimen.

Klikkaa sitten nähdäksesi säähavainnot ja -ennusteet.

Kartan vaihtaminen: klikkaa mustalla rastilla varustettuja vihreitä pisteitä, niin voit zoomata sisään; viivalla varustettua vihreää pistettä, niin voit zoomata ulos tai vihreitä nuolia, niin pääset viereisille kartoille.


METAR-TAF: